Time;durP1;ratioP1;P1;durP2;ratioP2;P2;SDS_P1;SDS_P2;PMS_P1;PMS_P2;Temp;Humidity;BMP_temperature;BMP_pressure;BME280_temperature;BME280_humidity;BME280_pressure;Samples;Min_cycle;Max_cycle;Signal;HPM_P1;HPM_P2
2021/07/20 00:00:55;;;;;;;0.00;0.00;;;;;;;;;;5055697;28;20271;-64
2021/07/20 00:03:20;;;;;;;0.00;0.00;;;;;;;;;;5069156;28;20035;-64
2021/07/20 00:05:45;;;;;;;0.00;0.00;;;;;;;;;;5040424;28;20859;-64
2021/07/20 00:08:11;;;;;;;0.00;0.00;;;;;;;;;;5056903;28;20267;-63
2021/07/20 00:10:43;;;;;;;0.00;0.00;;;;;;;;;;5059555;28;20268;-64
2021/07/20 00:13:08;;;;;;;0.00;0.00;;;;;;;;;;5048697;28;20377;-64
2021/07/20 00:15:34;;;;;;;0.00;0.00;;;;;;;;;;5048608;28;20104;-64
2021/07/20 00:18:00;;;;;;;0.00;0.00;;;;;;;;;;5036283;28;20271;-63
2021/07/20 00:20:26;;;;;;;0.00;0.00;;;;;;;;;;5068130;28;20195;-64
2021/07/20 00:22:51;;;;;;;0.00;0.00;;;;;;;;;;5045064;28;20352;-64
2021/07/20 00:25:16;;;;;;;0.00;0.00;;;;;;;;;;5048586;28;20200;-64
2021/07/20 00:27:41;;;;;;;0.00;0.00;;;;;;;;;;5059155;28;20095;-63
2021/07/20 00:30:07;;;;;;;0.00;0.00;;;;;;;;;;5057286;28;20286;-65
2021/07/20 00:32:32;;;;;;;0.10;0.10;;;;;;;;;;5042962;28;20381;-64
2021/07/20 00:34:57;;;;;;;0.00;0.00;;;;;;;;;;5069589;28;20833;-65
2021/07/20 00:37:23;;;;;;;0.00;0.00;;;;;;;;;;5037671;28;20532;-64
2021/07/20 00:39:48;;;;;;;0.00;0.00;;;;;;;;;;5048782;28;20271;-64
2021/07/20 00:42:13;;;;;;;0.00;0.00;;;;;;;;;;5050338;28;20832;-64
2021/07/20 00:44:38;;;;;;;0.00;0.00;;;;;;;;;;5069064;28;20271;-64
2021/07/20 00:47:03;;;;;;;0.00;0.00;;;;;;;;;;5070279;28;20430;-64
2021/07/20 00:49:29;;;;;;;0.00;0.00;;;;;;;;;;5069275;28;20674;-64
2021/07/20 00:51:54;;;;;;;0.00;0.00;;;;;;;;;;5059496;28;20273;-64
2021/07/20 00:54:19;;;;;;;0.00;0.00;;;;;;;;;;5042749;28;20032;-64
2021/07/20 00:56:44;;;;;;;0.00;0.00;;;;;;;;;;5032450;28;20079;-64
2021/07/20 00:59:11;;;;;;;0.00;0.00;;;;;;;;;;5055713;28;20344;-64
2021/07/20 01:01:39;;;;;;;0.00;0.00;;;;;;;;;;5054052;28;20056;-63
2021/07/20 01:04:04;;;;;;;0.00;0.00;;;;;;;;;;5050987;28;20025;-63
2021/07/20 01:06:29;;;;;;;0.00;0.00;;;;;;;;;;5054875;28;20032;-63
2021/07/20 01:08:55;;;;;;;0.00;0.00;;;;;;;;;;5068469;28;20726;-63
2021/07/20 01:11:20;;;;;;;0.00;0.00;;;;;;;;;;5036685;28;20551;-64
2021/07/20 01:13:45;;;;;;;0.00;0.00;;;;;;;;;;5038876;28;20061;-63
2021/07/20 01:16:11;;;;;;;0.00;0.00;;;;;;;;;;5052351;28;20059;-62
2021/07/20 01:18:37;;;;;;;0.00;0.00;;;;;;;;;;5037905;28;20469;-63
2021/07/20 01:21:02;;;;;;;0.00;0.00;;;;;;;;;;5048428;28;20264;-63
2021/07/20 01:23:34;;;;;;;0.00;0.00;;;;;;;;;;5037516;28;20035;-63
2021/07/20 01:25:59;;;;;;;0.00;0.00;;;;;;;;;;5054229;28;20016;-63
2021/07/20 01:28:25;;;;;;;0.00;0.00;;;;;;;;;;5058783;28;20422;-64
2021/07/20 01:30:57;;;;;;;0.00;0.00;;;;;;;;;;5056872;28;20021;-63
2021/07/20 01:33:22;;;;;;;0.00;0.00;;;;;;;;;;5058502;28;20025;-63
2021/07/20 01:35:48;;;;;;;0.00;0.00;;;;;;;;;;5059118;28;20078;-64
2021/07/20 01:38:13;;;;;;;0.00;0.00;;;;;;;;;;5039884;28;20035;-63
2021/07/20 01:40:38;;;;;;;0.00;0.00;;;;;;;;;;5040120;28;20366;-63
2021/07/20 01:43:05;;;;;;;0.00;0.00;;;;;;;;;;5061472;28;20526;-63
2021/07/20 01:45:30;;;;;;;0.10;0.10;;;;;;;;;;5052131;28;20050;-63
2021/07/20 01:47:56;;;;;;;0.00;0.00;;;;;;;;;;5051918;28;20021;-63
2021/07/20 01:50:22;;;;;;;0.00;0.00;;;;;;;;;;5038803;28;20469;-63
2021/07/20 01:52:47;;;;;;;0.00;0.00;;;;;;;;;;5040254;28;20086;-63
2021/07/20 01:55:12;;;;;;;0.00;0.00;;;;;;;;;;5050160;28;20083;-63
2021/07/20 01:57:38;;;;;;;0.00;0.00;;;;;;;;;;5057406;28;20281;-63
2021/07/20 02:00:06;;;;;;;0.08;0.08;;;;;;;;;;5057316;28;20044;-63
2021/07/20 02:02:36;;;;;;;0.00;0.00;;;;;;;;;;5044770;28;20029;-63
2021/07/20 02:10:29;;;;;;;0.00;0.00;;;;;;;;;;5048793;28;20369;-63
2021/07/20 02:12:56;;;;;;;0.00;0.00;;;;;;;;;;5044792;28;20016;-63
2021/07/20 02:15:22;;;;;;;0.00;0.00;;;;;;;;;;5058172;28;20686;-63
2021/07/20 02:17:47;;;;;;;0.00;0.00;;;;;;;;;;5052617;28;20036;-63
2021/07/20 02:20:17;;;;;;;0.00;0.00;;;;;;;;;;5060265;28;20025;-63
2021/07/20 02:22:42;;;;;;;0.00;0.00;;;;;;;;;;5052123;28;20512;-63
2021/07/20 02:25:08;;;;;;;0.00;0.00;;;;;;;;;;5056661;28;20057;-64
2021/07/20 02:27:33;;;;;;;0.00;0.00;;;;;;;;;;5037443;28;20047;-63
2021/07/20 02:29:59;;;;;;;0.00;0.00;;;;;;;;;;5044806;28;20473;-63
2021/07/20 02:32:25;;;;;;;0.10;0.10;;;;;;;;;;5036950;28;20333;-64
2021/07/20 02:34:50;;;;;;;0.00;0.00;;;;;;;;;;5060245;28;20029;-63
2021/07/20 02:37:16;;;;;;;0.00;0.00;;;;;;;;;;5064391;28;20109;-64
2021/07/20 02:39:41;;;;;;;0.00;0.00;;;;;;;;;;5035492;28;20024;-63
2021/07/20 02:42:07;;;;;;;0.03;0.03;;;;;;;;;;5061877;28;20052;-62
2021/07/20 02:44:32;;;;;;;0.00;0.00;;;;;;;;;;5069044;28;20255;-63
2021/07/20 02:46:58;;;;;;;0.00;0.00;;;;;;;;;;5067560;28;20038;-63
2021/07/20 02:49:24;;;;;;;0.00;0.00;;;;;;;;;;5067986;28;20056;-63
2021/07/20 02:51:50;;;;;;;0.10;0.10;;;;;;;;;;5060852;28;20063;-63
2021/07/20 02:54:15;;;;;;;0.00;0.00;;;;;;;;;;5070247;28;20266;-63
2021/07/20 02:56:41;;;;;;;0.00;0.00;;;;;;;;;;5063168;28;20127;-63
2021/07/20 02:59:06;;;;;;;0.10;0.10;;;;;;;;;;5071497;28;20025;-63
2021/07/20 03:01:32;;;;;;;0.00;0.00;;;;;;;;;;5071252;28;20465;-63
2021/07/20 03:03:57;;;;;;;0.00;0.00;;;;;;;;;;5051490;28;20024;-63
2021/07/20 03:06:22;;;;;;;0.00;0.00;;;;;;;;;;5056038;28;20167;-63
2021/07/20 03:08:47;;;;;;;0.00;0.00;;;;;;;;;;5044638;28;20029;-63
2021/07/20 03:11:13;;;;;;;0.00;0.00;;;;;;;;;;5061146;28;20032;-62
2021/07/20 03:13:39;;;;;;;0.00;0.00;;;;;;;;;;5052706;28;20363;-63
2021/07/20 03:16:05;;;;;;;0.00;0.00;;;;;;;;;;5034869;28;20040;-62
2021/07/20 03:18:30;;;;;;;0.00;0.00;;;;;;;;;;5052886;28;20052;-63
2021/07/20 03:20:55;;;;;;;0.00;0.00;;;;;;;;;;5071342;28;20024;-63
2021/07/20 03:23:21;;;;;;;0.10;0.10;;;;;;;;;;5070946;28;20075;-63
2021/07/20 03:25:46;;;;;;;0.00;0.00;;;;;;;;;;5055075;28;20294;-62
2021/07/20 03:28:12;;;;;;;0.10;0.10;;;;;;;;;;5051122;28;20028;-62
2021/07/20 03:30:37;;;;;;;0.10;0.10;;;;;;;;;;5034693;28;20299;-62
2021/07/20 03:33:02;;;;;;;0.00;0.00;;;;;;;;;;5058885;28;20605;-62
2021/07/20 03:35:27;;;;;;;0.00;0.00;;;;;;;;;;5050795;28;20268;-62
2021/07/20 03:37:53;;;;;;;0.10;0.10;;;;;;;;;;5035106;28;20025;-63
2021/07/20 03:40:21;;;;;;;0.03;0.03;;;;;;;;;;5070475;28;20024;-62
2021/07/20 03:42:46;;;;;;;0.10;0.10;;;;;;;;;;5051057;28;20040;-63
2021/07/20 03:45:12;;;;;;;0.10;0.10;;;;;;;;;;5047598;28;20027;-62
2021/07/20 03:47:37;;;;;;;0.00;0.00;;;;;;;;;;5050474;28;20021;-63
2021/07/20 03:50:03;;;;;;;0.00;0.00;;;;;;;;;;5050712;28;20025;-63
2021/07/20 03:52:29;;;;;;;0.10;0.10;;;;;;;;;;5058743;28;20475;-62
2021/07/20 03:54:54;;;;;;;0.00;0.00;;;;;;;;;;5051780;28;20020;-62
2021/07/20 03:57:20;;;;;;;0.10;0.10;;;;;;;;;;5063482;28;20393;-62
2021/07/20 03:59:45;;;;;;;0.10;0.10;;;;;;;;;;5056804;28;20271;-62
2021/07/20 04:02:10;;;;;;;0.00;0.00;;;;;;;;;;5058101;28;20691;-63
2021/07/20 04:04:37;;;;;;;0.10;0.10;;;;;;;;;;5064619;28;20290;-62
2021/07/20 04:07:02;;;;;;;0.00;0.00;;;;;;;;;;5033923;28;20764;-62
2021/07/20 04:09:27;;;;;;;0.08;0.08;;;;;;;;;;5057089;28;20027;-63
2021/07/20 04:11:53;;;;;;;0.00;0.00;;;;;;;;;;5057127;28;20021;-62
2021/07/20 04:14:18;;;;;;;0.00;0.00;;;;;;;;;;5053595;28;20032;-63
2021/07/20 04:16:43;;;;;;;0.00;0.00;;;;;;;;;;5046644;28;20279;-62
2021/07/20 04:19:09;;;;;;;0.10;0.10;;;;;;;;;;5059946;28;20673;-62
2021/07/20 04:21:36;;;;;;;0.10;0.10;;;;;;;;;;5069664;28;20016;-62
2021/07/20 04:24:01;;;;;;;0.00;0.00;;;;;;;;;;5041492;28;20025;-63
2021/07/20 04:26:26;;;;;;;0.00;0.00;;;;;;;;;;5069239;28;20358;-63
2021/07/20 04:28:51;;;;;;;0.05;0.05;;;;;;;;;;5056735;28;20810;-63
2021/07/20 04:31:20;;;;;;;0.00;0.00;;;;;;;;;;5049314;28;20389;-63
2021/07/20 04:33:46;;;;;;;0.00;0.00;;;;;;;;;;5054067;28;20020;-62
2021/07/20 04:36:12;;;;;;;0.00;0.00;;;;;;;;;;5044363;28;20116;-63
2021/07/20 04:38:37;;;;;;;0.00;0.00;;;;;;;;;;5063856;28;20045;-63
2021/07/20 04:41:02;;;;;;;0.00;0.00;;;;;;;;;;5064343;28;20052;-63
2021/07/20 04:43:28;;;;;;;0.00;0.00;;;;;;;;;;5034895;28;20523;-63
2021/07/20 04:45:54;;;;;;;0.00;0.00;;;;;;;;;;5050247;28;20283;-63
2021/07/20 04:48:19;;;;;;;0.00;0.00;;;;;;;;;;5053002;28;20024;-63
2021/07/20 04:50:44;;;;;;;0.00;0.00;;;;;;;;;;5045732;28;20119;-63
2021/07/20 04:53:10;;;;;;;0.10;0.10;;;;;;;;;;5066758;28;20290;-62
2021/07/20 04:55:35;;;;;;;0.00;0.00;;;;;;;;;;5062429;28;20020;-63
2021/07/20 04:58:01;;;;;;;0.00;0.00;;;;;;;;;;5062538;28;20476;-62
2021/07/20 05:00:27;;;;;;;0.00;0.00;;;;;;;;;;5066724;28;20009;-63
2021/07/20 05:02:52;;;;;;;0.07;0.07;;;;;;;;;;5067726;28;20010;-63
2021/07/20 05:05:17;;;;;;;0.10;0.10;;;;;;;;;;5052845;28;20280;-62
2021/07/20 05:07:43;;;;;;;0.08;0.08;;;;;;;;;;5044041;28;20365;-64
2021/07/20 05:10:10;;;;;;;0.00;0.00;;;;;;;;;;5052482;28;20036;-64
2021/07/20 05:12:35;;;;;;;0.00;0.00;;;;;;;;;;5061950;28;20270;-63
2021/07/20 05:15:01;;;;;;;0.00;0.00;;;;;;;;;;5057026;28;20517;-64
2021/07/20 05:17:26;;;;;;;0.10;0.10;;;;;;;;;;5064681;28;20266;-63
2021/07/20 05:19:51;;;;;;;0.00;0.00;;;;;;;;;;5056733;28;20025;-62
2021/07/20 05:22:18;;;;;;;0.00;0.00;;;;;;;;;;5039922;28;20263;-63
2021/07/20 05:24:43;;;;;;;0.00;0.00;;;;;;;;;;5052541;28;20275;-62
2021/07/20 05:27:08;;;;;;;0.10;0.10;;;;;;;;;;5059797;28;20032;-62
2021/07/20 05:29:34;;;;;;;0.00;0.00;;;;;;;;;;5033577;28;20303;-61
2021/07/20 05:31:59;;;;;;;0.03;0.03;;;;;;;;;;5051070;28;20028;-61
2021/07/20 05:34:24;;;;;;;0.00;0.00;;;;;;;;;;5043702;28;20531;-61
2021/07/20 05:36:49;;;;;;;0.00;0.00;;;;;;;;;;5065759;28;20533;-61
2021/07/20 05:39:14;;;;;;;0.00;0.00;;;;;;;;;;5055133;28;20021;-61
2021/07/20 05:41:40;;;;;;;0.00;0.00;;;;;;;;;;5060129;28;20049;-61
2021/07/20 05:44:09;;;;;;;0.10;0.10;;;;;;;;;;5051696;28;20271;-61
2021/07/20 05:46:34;;;;;;;0.00;0.00;;;;;;;;;;5053651;28;20393;-61
2021/07/20 05:49:00;;;;;;;0.10;0.10;;;;;;;;;;5042103;28;20023;-61
2021/07/20 05:51:25;;;;;;;0.00;0.00;;;;;;;;;;5035991;28;20024;-61
2021/07/20 05:53:50;;;;;;;0.00;0.00;;;;;;;;;;5048726;28;20016;-61
2021/07/20 05:56:15;;;;;;;0.00;0.00;;;;;;;;;;5046281;28;20752;-61
2021/07/20 05:58:42;;;;;;;0.00;0.00;;;;;;;;;;5053808;28;20370;-61
2021/07/20 06:01:08;;;;;;;0.08;0.08;;;;;;;;;;5042173;28;20380;-61
2021/07/20 06:03:33;;;;;;;0.00;0.00;;;;;;;;;;5054980;28;20047;-62
2021/07/20 06:05:58;;;;;;;0.00;0.00;;;;;;;;;;5051730;28;20120;-61
2021/07/20 06:08:24;;;;;;;0.00;0.00;;;;;;;;;;5037433;28;20378;-61
2021/07/20 06:10:54;;;;;;;0.00;0.00;;;;;;;;;;5070621;28;20017;-61
2021/07/20 06:13:19;;;;;;;0.00;0.00;;;;;;;;;;5058274;28;20060;-61
2021/07/20 06:15:48;;;;;;;0.00;0.00;;;;;;;;;;5063940;28;20068;-61
2021/07/20 06:18:13;;;;;;;0.00;0.00;;;;;;;;;;5057051;28;20027;-61
2021/07/20 06:20:38;;;;;;;0.00;0.00;;;;;;;;;;5053850;28;20479;-61
2021/07/20 06:23:03;;;;;;;0.00;0.00;;;;;;;;;;5053874;28;20033;-61
2021/07/20 06:25:29;;;;;;;0.00;0.00;;;;;;;;;;5052610;28;20100;-61
2021/07/20 06:27:57;;;;;;;0.08;0.08;;;;;;;;;;5052282;28;20289;-62
2021/07/20 06:30:22;;;;;;;0.10;0.10;;;;;;;;;;5052249;28;20433;-61
2021/07/20 06:32:48;;;;;;;0.00;0.00;;;;;;;;;;5063423;28;20052;-66
2021/07/20 06:35:14;;;;;;;0.00;0.00;;;;;;;;;;5071512;28;20020;-61
2021/07/20 06:37:43;;;;;;;0.00;0.00;;;;;;;;;;5036041;28;20119;-61
2021/07/20 06:40:09;;;;;;;0.00;0.00;;;;;;;;;;5051113;28;20104;-63
2021/07/20 06:42:34;;;;;;;0.00;0.00;;;;;;;;;;5037592;28;20052;-63
2021/07/20 06:44:59;;;;;;;0.00;0.00;;;;;;;;;;5061062;28;20024;-63
2021/07/20 06:47:25;;;;;;;0.00;0.00;;;;;;;;;;5053385;28;20775;-64
2021/07/20 06:49:50;;;;;;;0.00;0.00;;;;;;;;;;5054086;28;20523;-63
2021/07/20 06:52:15;;;;;;;0.00;0.00;;;;;;;;;;5051972;28;20071;-63
2021/07/20 06:54:41;;;;;;;0.00;0.00;;;;;;;;;;5039298;28;20031;-62
2021/07/20 06:57:06;;;;;;;0.00;0.00;;;;;;;;;;5062133;28;20028;-63
2021/07/20 06:59:33;;;;;;;0.00;0.00;;;;;;;;;;5055801;28;20598;-63
2021/07/20 07:01:58;;;;;;;0.00;0.00;;;;;;;;;;5030116;28;20060;-64
2021/07/20 07:04:30;;;;;;;0.00;0.00;;;;;;;;;;5049422;28;20777;-62
2021/07/20 07:06:55;;;;;;;0.00;0.00;;;;;;;;;;5052734;28;20644;-63
2021/07/20 07:09:23;;;;;;;0.00;0.00;;;;;;;;;;5051043;28;20028;-64
2021/07/20 07:11:49;;;;;;;0.00;0.00;;;;;;;;;;5049367;28;20025;-64
2021/07/20 07:14:14;;;;;;;0.00;0.00;;;;;;;;;;5054242;28;20024;-65
2021/07/20 07:16:40;;;;;;;0.00;0.00;;;;;;;;;;5060366;28;20096;-65
2021/07/20 07:19:05;;;;;;;0.00;0.00;;;;;;;;;;5036519;28;20275;-65
2021/07/20 07:21:31;;;;;;;0.08;0.08;;;;;;;;;;5033947;28;20126;-64
2021/07/20 07:23:56;;;;;;;0.00;0.00;;;;;;;;;;5056490;28;20037;-65
2021/07/20 07:26:21;;;;;;;0.00;0.00;;;;;;;;;;5037711;28;20663;-64
2021/07/20 07:28:49;;;;;;;0.00;0.00;;;;;;;;;;5037146;28;20751;-67
2021/07/20 07:31:15;;;;;;;0.00;0.00;;;;;;;;;;5033281;28;20469;-65
2021/07/20 07:33:40;;;;;;;0.00;0.00;;;;;;;;;;5035599;28;20071;-65
2021/07/20 07:36:06;;;;;;;0.00;0.00;;;;;;;;;;5052989;28;20466;-65
2021/07/20 07:38:31;;;;;;;0.00;0.00;;;;;;;;;;5056437;28;20284;-65
2021/07/20 07:40:57;;;;;;;0.00;0.00;;;;;;;;;;5048993;28;20056;-65
2021/07/20 07:43:23;;;;;;;0.00;0.00;;;;;;;;;;5057684;28;20028;-64
2021/07/20 07:45:49;;;;;;;0.10;0.00;;;;;;;;;;5041904;28;20025;-65
2021/07/20 07:48:14;;;;;;;0.00;0.00;;;;;;;;;;5041071;28;20028;-65
2021/07/20 07:50:39;;;;;;;0.00;0.00;;;;;;;;;;5063627;28;20024;-65
2021/07/20 07:53:04;;;;;;;0.00;0.00;;;;;;;;;;5069525;28;20024;-65
2021/07/20 07:55:31;;;;;;;0.00;0.00;;;;;;;;;;5043814;28;20283;-68
2021/07/20 07:57:56;;;;;;;0.00;0.00;;;;;;;;;;5047495;28;20021;-65
2021/07/20 08:00:22;;;;;;;0.00;0.00;;;;;;;;;;5041120;28;20027;-65
2021/07/20 08:02:48;;;;;;;0.00;0.00;;;;;;;;;;5060934;28;20035;-64
2021/07/20 08:05:14;;;;;;;0.00;0.00;;;;;;;;;;5060016;28;20029;-64
2021/07/20 08:07:40;;;;;;;0.00;0.00;;;;;;;;;;5044191;28;20032;-64
2021/07/20 08:10:06;;;;;;;0.00;0.00;;;;;;;;;;5058892;28;20477;-64
2021/07/20 08:12:31;;;;;;;0.00;0.00;;;;;;;;;;5058635;28;20032;-65
2021/07/20 08:14:56;;;;;;;0.00;0.00;;;;;;;;;;5057243;28;20436;-64
2021/07/20 08:17:22;;;;;;;0.00;0.00;;;;;;;;;;5052590;28;20489;-64
2021/07/20 08:19:47;;;;;;;0.00;0.00;;;;;;;;;;5051435;28;20047;-65
2021/07/20 08:22:15;;;;;;;0.00;0.00;;;;;;;;;;5039584;28;20070;-64
2021/07/20 08:25:00;;;;;;;0.00;0.00;;;;;;;;;;5062037;28;20021;-64
2021/07/20 08:27:25;;;;;;;0.00;0.00;;;;;;;;;;5063008;28;20140;-64
2021/07/20 08:29:51;;;;;;;0.00;0.00;;;;;;;;;;5062977;28;20508;-64
2021/07/20 08:32:17;;;;;;;0.00;0.00;;;;;;;;;;5060419;28;20265;-65
2021/07/20 08:34:44;;;;;;;0.00;0.00;;;;;;;;;;5042950;28;20013;-64
2021/07/20 08:37:09;;;;;;;0.00;0.00;;;;;;;;;;5040117;28;20020;-64
2021/07/20 08:39:35;;;;;;;0.00;0.00;;;;;;;;;;5058967;28;20492;-65
2021/07/20 08:42:03;;;;;;;0.00;0.00;;;;;;;;;;5069052;28;20500;-65
2021/07/20 08:44:47;;;;;;;0.00;0.00;;;;;;;;;;5069820;28;20263;-65
2021/07/20 08:47:23;;;;;;;0.00;0.00;;;;;;;;;;5060925;28;20538;-65
2021/07/20 08:50:07;;;;;;;0.00;0.00;;;;;;;;;;5044078;28;20024;-65
2021/07/20 08:52:41;;;;;;;0.00;0.00;;;;;;;;;;5067441;28;20016;-65
2021/07/20 08:55:12;;;;;;;0.00;0.00;;;;;;;;;;5062421;28;20025;-64
2021/07/20 08:57:38;;;;;;;0.00;0.00;;;;;;;;;;5051456;28;20484;-64
2021/07/20 09:00:07;;;;;;;0.00;0.00;;;;;;;;;;5055617;28;20021;-64
2021/07/20 09:02:32;;;;;;;0.00;0.00;;;;;;;;;;5041166;28;20333;-65
2021/07/20 09:05:03;;;;;;;0.00;0.00;;;;;;;;;;5054624;28;20117;-65
2021/07/20 09:07:30;;;;;;;0.00;0.00;;;;;;;;;;5062538;28;20396;-65
2021/07/20 09:09:55;;;;;;;0.00;0.00;;;;;;;;;;5050835;28;20021;-65
2021/07/20 09:12:27;;;;;;;0.00;0.00;;;;;;;;;;5039394;28;20032;-65
2021/07/20 09:14:56;;;;;;;0.00;0.00;;;;;;;;;;5056450;28;20478;-65
2021/07/20 09:17:28;;;;;;;0.00;0.00;;;;;;;;;;5050347;28;20493;-65
2021/07/20 09:19:55;;;;;;;0.00;0.00;;;;;;;;;;5055709;28;20025;-65
2021/07/20 09:22:21;;;;;;;0.00;0.00;;;;;;;;;;5056605;28;20021;-66
2021/07/20 09:24:50;;;;;;;0.00;0.00;;;;;;;;;;5054187;28;20040;-64
2021/07/20 09:27:35;;;;;;;0.00;0.00;;;;;;;;;;5060513;28;20021;-65
2021/07/20 09:30:00;;;;;;;;;;;;;;;;;;5061902;28;20025;-65
2021/07/20 09:32:40;;;;;;;0.00;0.00;;;;;;;;;;5058451;28;19935;-65
2021/07/20 09:35:08;;;;;;;0.00;0.00;;;;;;;;;;5054794;28;20029;-65
2021/07/20 09:37:52;;;;;;;0.00;0.00;;;;;;;;;;5033036;28;20029;-65
2021/07/20 09:40:24;;;;;;;0.00;0.00;;;;;;;;;;5061947;28;20028;-65
2021/07/20 09:42:52;;;;;;;0.00;0.00;;;;;;;;;;5043591;28;20131;-65
2021/07/20 09:45:21;;;;;;;0.00;0.00;;;;;;;;;;5070599;28;20378;-65
2021/07/20 09:48:07;;;;;;;0.00;0.00;;;;;;;;;;5059377;28;20108;-65
2021/07/20 09:50:33;;;;;;;0.00;0.00;;;;;;;;;;5074307;28;20536;-65
2021/07/20 09:53:13;;;;;;;0.00;0.00;;;;;;;;;;5056114;28;20092;-64
2021/07/20 09:55:54;;;;;;;0.00;0.00;;;;;;;;;;5053413;28;20091;-64
2021/07/20 09:58:30;;;;;;;0.00;0.00;;;;;;;;;;5053407;28;20106;-64
2021/07/20 10:01:01;;;;;;;0.00;0.00;;;;;;;;;;5058334;28;20481;-64
2021/07/20 10:03:38;;;;;;;0.00;0.00;;;;;;;;;;5065176;28;20013;-64
2021/07/20 10:06:36;;;;;;;0.00;0.00;;;;;;;;;;5035478;28;20038;-63
2021/07/20 10:09:05;;;;;;;0.00;0.00;;;;;;;;;;5041823;28;20091;-66
2021/07/20 10:11:30;;;;;;;0.00;0.00;;;;;;;;;;5035368;28;20377;-63
2021/07/20 10:13:58;;;;;;;0.00;0.00;;;;;;;;;;5062764;28;20021;-63
2021/07/20 10:16:43;;;;;;;0.00;0.00;;;;;;;;;;5061273;28;20047;-63
2021/07/20 10:19:08;;;;;;;0.00;0.00;;;;;;;;;;5069913;28;20416;-64
2021/07/20 10:21:37;;;;;;;0.00;0.00;;;;;;;;;;5056200;28;20033;-63
2021/07/20 10:24:09;;;;;;;0.00;0.00;;;;;;;;;;5057395;28;20423;-63
2021/07/20 10:26:54;;;;;;;0.00;0.00;;;;;;;;;;5060065;28;20023;-63
2021/07/20 10:29:20;;;;;;;0.00;0.00;;;;;;;;;;5057894;28;20032;-63
2021/07/20 10:31:49;;;;;;;0.00;0.00;;;;;;;;;;5037731;28;20037;-63
2021/07/20 10:34:18;;;;;;;0.00;0.00;;;;;;;;;;5049776;28;20476;-63
2021/07/20 10:36:50;;;;;;;0.00;0.00;;;;;;;;;;5059114;28;20028;-63
2021/07/20 10:39:17;;;;;;;0.00;0.00;;;;;;;;;;5036803;28;20035;-64
2021/07/20 10:41:51;;;;;;;0.00;0.00;;;;;;;;;;5059156;28;20068;-64
2021/07/20 10:44:19;;;;;;;0.00;0.00;;;;;;;;;;5042016;28;20852;-63
2021/07/20 10:46:44;;;;;;;0.00;0.00;;;;;;;;;;5041889;28;20029;-63
2021/07/20 10:49:36;;;;;;;0.00;0.00;;;;;;;;;;5057131;28;20058;-63
2021/07/20 10:52:03;;;;;;;0.00;0.00;;;;;;;;;;5031191;28;20048;-64
2021/07/20 10:54:31;;;;;;;0.00;0.00;;;;;;;;;;5051466;28;20063;-64
2021/07/20 10:56:57;;;;;;;0.00;0.00;;;;;;;;;;5062290;28;20020;-63
2021/07/20 10:59:41;;;;;;;0.00;0.00;;;;;;;;;;5054369;28;20480;-63
2021/07/20 11:02:10;;;;;;;0.00;0.00;;;;;;;;;;5057401;28;20048;-63
2021/07/20 11:04:36;;;;;;;0.00;0.00;;;;;;;;;;5049517;28;20512;-64
2021/07/20 11:07:01;;;;;;;0.00;0.00;;;;;;;;;;5068181;28;20021;-64
2021/07/20 11:09:26;;;;;;;0.00;0.00;;;;;;;;;;5064808;28;20774;-63
2021/07/20 11:11:53;;;;;;;0.00;0.00;;;;;;;;;;5054547;28;20632;-63
2021/07/20 11:14:20;;;;;;;0.00;0.00;;;;;;;;;;5052287;28;20032;-64
2021/07/20 11:16:49;;;;;;;0.00;0.00;;;;;;;;;;5069591;28;20120;-64
2021/07/20 11:19:14;;;;;;;0.00;0.00;;;;;;;;;;5041310;28;20040;-64
2021/07/20 11:21:39;;;;;;;0.00;0.00;;;;;;;;;;5062253;28;20428;-64
2021/07/20 11:24:04;;;;;;;0.00;0.00;;;;;;;;;;5056941;28;20036;-64
2021/07/20 11:26:30;;;;;;;0.00;0.00;;;;;;;;;;5042685;28;20035;-64
2021/07/20 11:28:55;;;;;;;0.00;0.00;;;;;;;;;;5036413;28;20473;-64
2021/07/20 11:31:23;;;;;;;0.00;0.00;;;;;;;;;;5055212;28;20017;-64
2021/07/20 11:34:08;;;;;;;0.00;0.00;;;;;;;;;;5062040;28;20660;-64
2021/07/20 11:36:34;;;;;;;0.00;0.00;;;;;;;;;;5059820;28;20032;-64
2021/07/20 11:38:59;;;;;;;0.00;0.00;;;;;;;;;;5039812;28;20414;-64
2021/07/20 11:41:25;;;;;;;0.00;0.00;;;;;;;;;;5056023;28;20045;-63
2021/07/20 11:43:50;;;;;;;0.00;0.00;;;;;;;;;;5054175;28;20049;-64
2021/07/20 11:46:16;;;;;;;0.00;0.00;;;;;;;;;;5055850;28;20021;-63
2021/07/20 11:48:54;;;;;;;0.00;0.00;;;;;;;;;;5055838;28;20492;-64
2021/07/20 11:51:24;;;;;;;0.00;0.00;;;;;;;;;;5040234;28;20025;-64
2021/07/20 11:54:10;;;;;;;0.00;0.00;;;;;;;;;;5063524;28;20060;-64
2021/07/20 11:56:38;;;;;;;0.00;0.00;;;;;;;;;;5040486;28;20016;-65
2021/07/20 11:59:07;;;;;;;0.00;0.00;;;;;;;;;;5061621;28;20020;-64
2021/07/20 12:02:10;;;;;;;0.00;0.00;;;;;;;;;;5058666;28;20024;-64
2021/07/20 12:04:54;;;;;;;0.00;0.00;;;;;;;;;;5062661;28;20451;-64
2021/07/20 12:07:20;;;;;;;0.00;0.00;;;;;;;;;;5062947;28;20476;-64
2021/07/20 12:09:57;;;;;;;0.00;0.00;;;;;;;;;;5065034;28;20023;-64
2021/07/20 12:12:24;;;;;;;0.00;0.00;;;;;;;;;;5064677;28;20021;-65
2021/07/20 12:14:49;;;;;;;0.00;0.00;;;;;;;;;;5044221;28;20028;-65
2021/07/20 12:17:15;;;;;;;0.00;0.00;;;;;;;;;;5064355;28;20421;-65
2021/07/20 12:19:40;;;;;;;0.00;0.00;;;;;;;;;;5057832;28;20029;-65
2021/07/20 12:22:06;;;;;;;0.00;0.00;;;;;;;;;;5059438;28;20057;-65
2021/07/20 12:24:34;;;;;;;0.00;0.00;;;;;;;;;;5053015;28;20026;-64
2021/07/20 12:26:59;;;;;;;0.00;0.00;;;;;;;;;;5054725;28;20032;-65
2021/07/20 12:29:24;;;;;;;0.00;0.00;;;;;;;;;;5060616;28;20073;-64
2021/07/20 12:31:50;;;;;;;0.00;0.00;;;;;;;;;;5059120;28;20020;-64
2021/07/20 12:34:15;;;;;;;0.00;0.00;;;;;;;;;;5046317;28;20021;-64
2021/07/20 12:36:40;;;;;;;0.00;0.00;;;;;;;;;;5059435;28;20373;-65
2021/07/20 12:39:07;;;;;;;0.00;0.00;;;;;;;;;;5044996;28;20043;-65
2021/07/20 12:41:33;;;;;;;0.00;0.00;;;;;;;;;;5064388;28;20129;-64
2021/07/20 12:43:58;;;;;;;0.00;0.00;;;;;;;;;;5034791;28;20157;-64
2021/07/20 12:46:27;;;;;;;0.00;0.00;;;;;;;;;;5053019;28;20033;-65
2021/07/20 12:48:53;;;;;;;0.00;0.00;;;;;;;;;;5047845;28;20044;-65
2021/07/20 12:51:18;;;;;;;0.00;0.00;;;;;;;;;;5039434;28;20028;-65
2021/07/20 12:53:44;;;;;;;0.00;0.00;;;;;;;;;;5054465;28;20017;-64
2021/07/20 12:56:10;;;;;;;0.00;0.00;;;;;;;;;;5054205;28;20032;-65
2021/07/20 12:58:36;;;;;;;0.00;0.00;;;;;;;;;;5056805;28;20029;-65
2021/07/20 13:01:01;;;;;;;0.00;0.00;;;;;;;;;;5061454;28;20033;-65
2021/07/20 13:03:26;;;;;;;0.00;0.00;;;;;;;;;;5057921;28;20393;-66
2021/07/20 13:05:51;;;;;;;0.00;0.00;;;;;;;;;;5043036;28;20029;-65
2021/07/20 13:08:18;;;;;;;0.00;0.00;;;;;;;;;;5055505;28;20462;-65
2021/07/20 13:10:44;;;;;;;0.00;0.00;;;;;;;;;;5058778;28;20349;-64
2021/07/20 13:13:12;;;;;;;0.00;0.00;;;;;;;;;;5055041;28;20100;-65
2021/07/20 13:15:37;;;;;;;0.00;0.00;;;;;;;;;;5043685;28;20503;-65
2021/07/20 13:18:02;;;;;;;0.00;0.00;;;;;;;;;;5056770;28;20033;-65
2021/07/20 13:20:28;;;;;;;0.00;0.00;;;;;;;;;;5062226;28;20354;-65
2021/07/20 13:22:54;;;;;;;0.00;0.00;;;;;;;;;;5058941;28;20031;-65
2021/07/20 13:25:20;;;;;;;0.00;0.00;;;;;;;;;;5054493;28;20020;-65
2021/07/20 13:27:46;;;;;;;0.00;0.00;;;;;;;;;;5052222;28;20049;-64
2021/07/20 13:30:17;;;;;;;0.00;0.00;;;;;;;;;;5034316;28;20023;-65
2021/07/20 13:32:43;;;;;;;0.00;0.00;;;;;;;;;;5050829;28;20690;-64
2021/07/20 13:35:08;;;;;;;0.00;0.00;;;;;;;;;;5057481;28;20029;-65
2021/07/20 13:37:34;;;;;;;0.00;0.00;;;;;;;;;;5044514;28;20028;-64
2021/07/20 13:40:00;;;;;;;0.00;0.00;;;;;;;;;;5042051;28;20029;-64
2021/07/20 13:42:26;;;;;;;0.00;0.00;;;;;;;;;;5053513;28;20480;-64
2021/07/20 13:44:52;;;;;;;0.00;0.00;;;;;;;;;;5036853;28;20032;-64
2021/07/20 13:47:18;;;;;;;0.00;0.00;;;;;;;;;;5037817;28;20025;-65
2021/07/20 13:49:45;;;;;;;0.00;0.00;;;;;;;;;;5045640;28;20074;-64
2021/07/20 13:52:14;;;;;;;0.00;0.00;;;;;;;;;;5062002;28;20021;-65
2021/07/20 13:54:40;;;;;;;0.00;0.00;;;;;;;;;;5054942;28;20025;-64
2021/07/20 13:57:05;;;;;;;0.00;0.00;;;;;;;;;;5034873;28;20021;-65
2021/07/20 13:59:32;;;;;;;0.00;0.00;;;;;;;;;;5037658;28;20025;-64
2021/07/20 14:01:57;;;;;;;0.00;0.00;;;;;;;;;;5061613;28;20641;-65
2021/07/20 14:04:22;;;;;;;0.00;0.00;;;;;;;;;;5038571;28;20016;-64
2021/07/20 14:06:48;;;;;;;0.00;0.00;;;;;;;;;;5041815;28;20276;-65
2021/07/20 14:09:13;;;;;;;0.00;0.00;;;;;;;;;;5030825;28;20108;-65
2021/07/20 14:11:38;;;;;;;0.00;0.00;;;;;;;;;;5063473;28;20024;-64
2021/07/20 14:14:04;;;;;;;0.00;0.00;;;;;;;;;;5053020;28;20282;-65
2021/07/20 14:16:29;;;;;;;0.00;0.00;;;;;;;;;;5048552;28;20052;-64
2021/07/20 14:18:54;;;;;;;0.00;0.00;;;;;;;;;;5058479;28;20112;-64
2021/07/20 14:21:28;;;;;;;0.00;0.00;;;;;;;;;;5057107;28;20036;-64
2021/07/20 14:23:54;;;;;;;0.00;0.00;;;;;;;;;;5053483;28;20025;-64
2021/07/20 14:26:19;;;;;;;0.00;0.00;;;;;;;;;;5058537;28;20495;-64
2021/07/20 14:28:45;;;;;;;0.00;0.00;;;;;;;;;;5060533;28;20025;-64
2021/07/20 14:31:12;;;;;;;0.00;0.00;;;;;;;;;;5057567;28;20017;-64
2021/07/20 14:33:38;;;;;;;0.00;0.00;;;;;;;;;;5047079;28;20279;-64
2021/07/20 14:36:06;;;;;;;0.00;0.00;;;;;;;;;;5038457;28;20032;-64
2021/07/20 14:38:41;;;;;;;0.00;0.00;;;;;;;;;;5053905;28;20028;-65
2021/07/20 14:41:08;;;;;;;0.00;0.00;;;;;;;;;;5035866;28;20036;-65
2021/07/20 14:43:34;;;;;;;0.00;0.00;;;;;;;;;;5054193;28;20090;-65
2021/07/20 14:46:12;;;;;;;0.00;0.00;;;;;;;;;;5042516;28;20580;-64
2021/07/20 14:48:41;;;;;;;0.00;0.00;;;;;;;;;;5047111;28;20410;-65